createdAt,value
2022-10-11T00:01:26.103Z,12.78
2022-10-11T00:04:13.984Z,13.65
2022-10-11T00:07:01.800Z,13.40
2022-10-11T00:09:49.538Z,12.57
2022-10-11T00:12:37.405Z,12.26
2022-10-11T00:15:25.850Z,13.16
2022-10-11T00:18:13.819Z,13.70
2022-10-11T00:21:08.775Z,13.38
2022-10-11T00:23:56.977Z,12.43
2022-10-11T00:26:46.937Z,12.19
2022-10-11T00:29:35.469Z,13.03
2022-10-11T00:32:23.606Z,13.61
2022-10-11T00:35:11.603Z,13.19
2022-10-11T00:37:59.849Z,12.28
2022-10-11T00:40:47.840Z,11.96
2022-10-11T00:43:36.697Z,12.78
2022-10-11T00:46:29.700Z,13.53
2022-10-11T00:49:49.313Z,13.67
2022-10-11T00:52:50.245Z,12.61
2022-10-11T00:55:48.536Z,12.63
2022-10-11T00:58:38.642Z,13.50
2022-10-11T01:01:27.348Z,13.94
2022-10-11T01:04:15.534Z,13.30
2022-10-11T01:07:03.855Z,12.44
2022-10-11T01:09:51.966Z,12.76
2022-10-11T01:13:15.945Z,13.54
2022-10-11T01:16:32.221Z,14.17
2022-10-11T01:19:44.567Z,14.00
2022-10-11T01:23:16.947Z,12.86
2022-10-11T01:27:05.643Z,12.60
2022-10-11T01:30:19.266Z,13.79
2022-10-11T01:33:45.077Z,14.45
2022-10-11T01:36:50.026Z,14.86
2022-10-11T01:39:47.776Z,14.32
2022-10-11T01:42:40.315Z,13.15
2022-10-11T01:45:28.320Z,12.84
2022-10-11T01:48:16.313Z,13.66
2022-10-11T01:51:04.552Z,14.37
2022-10-11T01:54:20.965Z,14.64
2022-10-11T01:57:41.118Z,13.70
2022-10-11T02:01:08.512Z,13.18
2022-10-11T02:04:14.150Z,14.04
2022-10-11T02:07:20.747Z,14.66
2022-10-11T02:10:36.991Z,15.02
2022-10-11T02:13:54.633Z,14.88
2022-10-11T02:16:48.718Z,13.63
2022-10-11T02:19:44.528Z,12.75
2022-10-11T02:22:39.412Z,12.88
2022-10-11T02:25:32.617Z,13.82
2022-10-11T02:28:30.496Z,14.39
2022-10-11T02:31:20.847Z,14.61
2022-10-11T02:34:14.253Z,13.91
2022-10-11T02:37:35.460Z,12.89
2022-10-11T02:40:45.065Z,13.26
2022-10-11T02:43:40.014Z,14.13
2022-10-11T02:46:30.658Z,14.63
2022-10-11T02:49:20.032Z,14.99
2022-10-11T02:52:07.874Z,15.20
2022-10-11T02:54:55.672Z,15.39
2022-10-11T02:57:43.795Z,15.23
2022-10-11T03:00:31.868Z,14.19
2022-10-11T03:03:20.189Z,13.65
2022-10-11T03:06:09.463Z,14.38
2022-10-11T03:08:57.132Z,14.97
2022-10-11T03:11:45.328Z,15.31
2022-10-11T03:14:33.477Z,15.62
2022-10-11T03:17:36.043Z,15.88
2022-10-11T03:20:25.270Z,16.07
2022-10-11T03:23:13.419Z,15.41
2022-10-11T03:26:01.619Z,14.66
2022-10-11T03:28:50.119Z,15.17
2022-10-11T03:31:38.098Z,15.72
2022-10-11T03:34:26.087Z,15.99
2022-10-11T03:37:14.369Z,16.29
2022-10-11T03:40:03.924Z,16.45
2022-10-11T03:42:51.744Z,15.79
2022-10-11T03:45:42.482Z,14.79
2022-10-11T03:48:30.298Z,14.39
2022-10-11T03:51:18.327Z,15.19
2022-10-11T03:54:06.579Z,15.80
2022-10-11T03:56:54.419Z,16.18
2022-10-11T03:59:42.704Z,16.36
2022-10-11T04:02:31.673Z,16.16
2022-10-11T04:05:21.681Z,15.15
2022-10-11T04:08:12.124Z,14.67
2022-10-11T04:11:00.784Z,15.39
2022-10-11T04:13:49.003Z,16.00
2022-10-11T04:16:38.870Z,16.23
2022-10-11T04:19:26.931Z,16.42
2022-10-11T04:22:14.757Z,15.65
2022-10-11T04:25:02.791Z,14.87
2022-10-11T04:27:51.123Z,15.45
2022-10-11T04:30:38.898Z,15.94
2022-10-11T04:33:27.219Z,16.15
2022-10-11T04:36:15.426Z,16.32
2022-10-11T04:39:04.137Z,15.37
2022-10-11T04:41:52.485Z,14.53
2022-10-11T04:44:40.709Z,15.02
2022-10-11T04:47:28.737Z,15.57
2022-10-11T04:50:16.756Z,15.94
2022-10-11T04:53:04.768Z,15.78
2022-10-11T04:56:07.823Z,14.69
2022-10-11T04:58:56.595Z,13.84
2022-10-11T05:01:44.955Z,14.53
2022-10-11T05:04:33.087Z,15.04
2022-10-11T05:07:21.150Z,15.44
2022-10-11T05:10:10.208Z,15.65
2022-10-11T05:12:57.981Z,15.40
2022-10-11T05:15:45.997Z,14.32
2022-10-11T05:18:34.013Z,13.80
2022-10-11T05:21:28.979Z,14.53
2022-10-11T05:24:16.487Z,15.06
2022-10-11T05:27:04.524Z,15.43
2022-10-11T05:29:52.179Z,15.62
2022-10-11T05:32:39.873Z,14.78
2022-10-11T05:35:28.064Z,14.19
2022-10-11T05:38:16.776Z,14.78
2022-10-11T05:41:05.904Z,15.43
2022-10-11T05:43:53.881Z,15.79
2022-10-11T05:46:44.676Z,15.20
2022-10-11T05:49:32.617Z,14.18
2022-10-11T05:52:21.691Z,13.75
2022-10-11T05:55:09.797Z,14.57
2022-10-11T05:57:58.109Z,15.14
2022-10-11T06:00:48.403Z,15.64
2022-10-11T06:03:36.543Z,15.71
2022-10-11T06:06:24.626Z,14.82
2022-10-11T06:09:12.979Z,14.29
2022-10-11T06:12:01.154Z,14.96
2022-10-11T06:14:49.001Z,15.68
2022-10-11T06:17:37.850Z,15.59
2022-10-11T06:20:27.146Z,14.56
2022-10-11T06:23:14.870Z,14.09
2022-10-11T06:26:07.984Z,14.85
2022-10-11T06:28:57.398Z,15.51
2022-10-11T06:31:45.931Z,15.50
2022-10-11T06:34:33.636Z,14.52
2022-10-11T06:37:21.388Z,14.13
2022-10-11T06:40:10.427Z,14.95
2022-10-11T06:42:58.046Z,15.57
2022-10-11T06:45:46.257Z,16.11
2022-10-11T06:48:34.869Z,15.86
2022-10-11T06:51:23.688Z,16.36
2022-10-11T06:54:11.571Z,18.65
2022-10-11T06:57:00.151Z,20.48
2022-10-11T06:59:48.127Z,21.13
2022-10-11T07:02:35.915Z,21.74
2022-10-11T07:05:23.589Z,22.37
2022-10-11T07:08:11.981Z,22.93
2022-10-11T07:11:12.787Z,23.49
2022-10-11T07:14:07.618Z,23.78
2022-10-11T07:16:55.957Z,23.98
2022-10-11T07:19:43.775Z,24.24
2022-10-11T07:22:31.770Z,24.56
2022-10-11T07:25:19.839Z,24.39
2022-10-11T07:28:07.852Z,24.49
2022-10-11T07:30:56.206Z,24.65
2022-10-11T07:33:44.046Z,24.67
2022-10-11T07:36:32.077Z,24.97
2022-10-11T07:39:19.956Z,25.49
2022-10-11T07:42:10.049Z,26.03
2022-10-11T07:44:58.021Z,26.63
2022-10-11T07:47:46.797Z,26.93
2022-10-11T07:50:35.570Z,27.18
2022-10-11T07:53:23.589Z,27.75
2022-10-11T07:56:14.247Z,28.31
2022-10-11T07:59:06.453Z,28.65
2022-10-11T08:01:54.259Z,29.01
2022-10-11T08:04:42.237Z,29.31
2022-10-11T08:07:33.305Z,29.46
2022-10-11T08:10:40.487Z,29.75
2022-10-11T08:13:28.969Z,29.81
2022-10-11T08:16:17.167Z,29.58
2022-10-11T08:19:06.711Z,29.35
2022-10-11T08:21:54.455Z,29.49
2022-10-11T08:24:42.276Z,29.34
2022-10-11T08:27:30.111Z,29.49
2022-10-11T08:30:18.851Z,29.25
2022-10-11T08:33:08.696Z,28.87
2022-10-11T08:35:57.487Z,28.81
2022-10-11T08:38:45.581Z,29.15
2022-10-11T08:41:58.692Z,29.46
2022-10-11T08:45:16.951Z,29.45
2022-10-11T08:48:19.228Z,28.79
2022-10-11T08:51:32.367Z,28.88
2022-10-11T08:54:39.293Z,29.07
2022-10-11T08:57:32.171Z,28.90
2022-10-11T09:00:21.809Z,29.19
2022-10-11T09:03:37.239Z,29.33
2022-10-11T09:07:04.713Z,28.81
2022-10-11T09:10:20.768Z,26.84
2022-10-11T09:13:31.651Z,24.80
2022-10-11T09:16:39.434Z,22.86
2022-10-11T09:19:58.339Z,21.71
2022-10-11T09:22:57.941Z,22.46
2022-10-11T09:26:11.689Z,23.70
2022-10-11T09:29:46.315Z,24.43
2022-10-11T09:32:46.011Z,25.92
2022-10-11T09:35:41.254Z,27.14
2022-10-11T09:38:56.708Z,28.12
2022-10-11T09:41:59.056Z,28.80
2022-10-11T09:44:51.398Z,29.65
2022-10-11T09:47:39.332Z,30.23
2022-10-11T09:50:30.032Z,30.27
2022-10-11T09:53:17.863Z,30.23
2022-10-11T09:56:06.834Z,30.54
2022-10-11T09:59:34.709Z,31.15
2022-10-11T10:02:24.607Z,31.83
2022-10-11T10:05:26.568Z,31.76
2022-10-11T10:08:25.422Z,31.98
2022-10-11T10:11:14.861Z,32.43
2022-10-11T10:14:02.846Z,32.83
2022-10-11T10:17:01.634Z,33.15
2022-10-11T10:19:55.652Z,33.13
2022-10-11T10:22:47.378Z,33.05
2022-10-11T10:25:43.289Z,33.09
2022-10-11T10:28:31.466Z,33.10
2022-10-11T10:31:49.580Z,33.18
2022-10-11T10:35:19.367Z,32.83
2022-10-11T10:38:52.004Z,32.73
2022-10-11T10:41:40.702Z,32.62
2022-10-11T10:44:28.821Z,32.81
2022-10-11T10:47:57.512Z,31.71
2022-10-11T10:51:10.578Z,28.66
2022-10-11T10:54:42.846Z,26.00
2022-10-11T10:57:48.413Z,24.14
2022-10-11T11:01:00.918Z,24.28
2022-10-11T11:03:55.024Z,23.98
2022-10-11T11:07:19.796Z,24.15
2022-10-11T11:10:21.172Z,24.48
2022-10-11T11:13:25.661Z,23.84
2022-10-11T11:16:34.137Z,22.78
2022-10-11T11:20:02.762Z,21.60
2022-10-11T11:23:33.206Z,20.30
2022-10-11T11:27:01.324Z,19.11
2022-10-11T11:30:01.222Z,18.31
2022-10-11T11:33:17.835Z,18.19
2022-10-11T11:36:43.598Z,18.29
2022-10-11T11:39:56.441Z,18.00
2022-10-11T11:43:27.122Z,18.24
2022-10-11T11:46:24.517Z,19.34
2022-10-11T11:49:25.603Z,20.34
2022-10-11T11:53:08.181Z,21.26
2022-10-11T11:56:25.894Z,22.16
2022-10-11T11:59:25.127Z,22.87
2022-10-11T12:02:49.115Z,23.36
2022-10-11T12:05:37.390Z,23.07
2022-10-11T12:08:31.297Z,22.11
2022-10-11T12:11:38.299Z,20.92
2022-10-11T12:14:28.975Z,19.91
2022-10-11T12:17:23.069Z,19.35
2022-10-11T12:20:25.664Z,19.35
2022-10-11T12:23:28.442Z,19.52
2022-10-11T12:26:28.139Z,19.75
2022-10-11T12:29:18.794Z,19.67
2022-10-11T12:32:06.819Z,19.25
2022-10-11T12:35:32.665Z,18.71
2022-10-11T12:38:29.591Z,18.30
2022-10-11T12:41:18.392Z,18.01
2022-10-11T12:44:18.810Z,17.85
2022-10-11T12:47:36.946Z,17.83
2022-10-11T12:51:14.506Z,17.89
2022-10-11T12:54:43.863Z,17.97
2022-10-11T12:58:08.881Z,17.87
2022-10-11T13:00:56.531Z,17.84
2022-10-11T13:04:05.364Z,17.72
2022-10-11T13:07:06.865Z,17.49
2022-10-11T13:09:55.475Z,17.30
2022-10-11T13:12:47.249Z,17.16
2022-10-11T13:15:35.443Z,16.94
2022-10-11T13:18:26.464Z,16.64
2022-10-11T13:21:39.731Z,16.21
2022-10-11T13:24:39.398Z,15.84
2022-10-11T13:27:27.990Z,15.58
2022-10-11T13:30:30.666Z,15.41
2022-10-11T13:33:32.507Z,15.30
2022-10-11T13:36:19.844Z,15.32
2022-10-11T13:39:08.093Z,15.35
2022-10-11T13:41:57.581Z,15.31
2022-10-11T13:44:47.200Z,15.28
2022-10-11T13:47:35.649Z,15.29
2022-10-11T13:50:33.689Z,15.32
2022-10-11T13:53:25.571Z,15.33
2022-10-11T13:56:19.669Z,15.28
2022-10-11T13:59:07.954Z,15.17
2022-10-11T14:02:01.453Z,15.13
2022-10-11T14:04:50.054Z,15.00
2022-10-11T14:07:39.298Z,14.81
2022-10-11T14:10:28.443Z,14.65
2022-10-11T14:13:35.864Z,14.62
2022-10-11T14:16:23.176Z,14.53
2022-10-11T14:19:11.533Z,14.42
2022-10-11T14:21:59.482Z,14.30
2022-10-11T14:24:48.370Z,14.19
2022-10-11T14:27:37.446Z,14.06
2022-10-11T14:30:27.815Z,13.90
2022-10-11T14:33:15.550Z,13.73
2022-10-11T14:36:04.468Z,13.59
2022-10-11T14:38:53.816Z,13.49
2022-10-11T14:41:42.765Z,13.41
2022-10-11T14:44:30.480Z,13.33
2022-10-11T14:47:18.710Z,13.28
2022-10-11T14:50:29.302Z,13.22
2022-10-11T14:53:17.739Z,13.09
2022-10-11T14:56:06.380Z,12.96
2022-10-11T14:58:54.307Z,12.82
2022-10-11T15:01:42.808Z,12.66
2022-10-11T15:04:31.062Z,12.51
2022-10-11T15:07:18.513Z,12.30
2022-10-11T15:10:38.836Z,12.11
2022-10-11T15:13:26.424Z,11.90
2022-10-11T15:16:19.043Z,11.78
2022-10-11T15:19:11.165Z,12.05
2022-10-11T15:21:58.943Z,13.13
2022-10-11T15:24:51.380Z,12.89
2022-10-11T15:27:39.817Z,12.40
2022-10-11T15:30:38.507Z,12.04
2022-10-11T15:33:28.973Z,11.75
2022-10-11T15:36:22.786Z,11.53
2022-10-11T15:39:30.729Z,11.74
2022-10-11T15:42:18.612Z,13.13
2022-10-11T15:45:06.630Z,13.65
2022-10-11T15:47:54.785Z,12.99
2022-10-11T15:50:43.196Z,12.35
2022-10-11T15:53:31.518Z,12.06
2022-10-11T15:56:20.149Z,12.99
2022-10-11T15:59:11.778Z,13.98
2022-10-11T16:01:59.588Z,14.21
2022-10-11T16:04:47.456Z,13.22
2022-10-11T16:07:35.571Z,12.45
2022-10-11T16:10:23.300Z,11.90
2022-10-11T16:13:12.249Z,11.79
2022-10-11T16:16:07.306Z,12.84
2022-10-11T16:18:55.615Z,13.47
2022-10-11T16:21:43.467Z,12.80
2022-10-11T16:24:31.319Z,12.06
2022-10-11T16:27:19.993Z,11.53
2022-10-11T16:30:11.914Z,11.60
2022-10-11T16:32:59.585Z,12.70
2022-10-11T16:35:47.057Z,13.61
2022-10-11T16:38:34.619Z,13.74
2022-10-11T16:41:22.397Z,12.86
2022-10-11T16:44:20.149Z,12.07
2022-10-11T16:47:07.972Z,11.48
2022-10-11T16:49:55.985Z,11.46
2022-10-11T16:52:43.819Z,13.14
2022-10-11T16:55:31.839Z,14.47
2022-10-11T16:58:19.872Z,14.80
2022-10-11T17:01:10.351Z,14.31
2022-10-11T17:03:58.315Z,13.13
2022-10-11T17:06:46.171Z,12.29
2022-10-11T17:09:33.792Z,11.67
2022-10-11T17:12:24.218Z,11.70
2022-10-11T17:15:12.771Z,13.19
2022-10-11T17:18:00.567Z,13.86
2022-10-11T17:20:48.984Z,14.31
2022-10-11T17:23:36.862Z,14.58
2022-10-11T17:26:28.294Z,13.96
2022-10-11T17:29:21.649Z,12.88
2022-10-11T17:32:19.207Z,12.01
2022-10-11T17:35:11.685Z,11.81
2022-10-11T17:38:05.724Z,12.77
2022-10-11T17:41:14.604Z,13.56
2022-10-11T17:44:03.336Z,13.65
2022-10-11T17:46:51.259Z,12.67
2022-10-11T17:49:38.950Z,11.83
2022-10-11T17:52:26.846Z,11.61
2022-10-11T17:55:15.782Z,12.53
2022-10-11T17:58:07.295Z,13.27
2022-10-11T18:00:55.252Z,13.10
2022-10-11T18:03:43.754Z,12.17
2022-10-11T18:06:39.184Z,11.82
2022-10-11T18:09:27.324Z,12.74
2022-10-11T18:12:14.798Z,13.49
2022-10-11T18:15:02.902Z,13.96
2022-10-11T18:17:50.977Z,13.67
2022-10-11T18:20:38.730Z,12.62
2022-10-11T18:23:29.609Z,11.78
2022-10-11T18:26:22.223Z,12.12
2022-10-11T18:29:14.649Z,12.97
2022-10-11T18:32:27.165Z,13.56
2022-10-11T18:35:15.212Z,13.32
2022-10-11T18:38:03.928Z,12.31
2022-10-11T18:40:51.623Z,11.53
2022-10-11T18:43:39.689Z,11.90
2022-10-11T18:46:28.737Z,12.81
2022-10-11T18:49:16.754Z,13.40
2022-10-11T18:52:04.326Z,13.26
2022-10-11T18:54:52.412Z,12.30
2022-10-11T18:57:40.764Z,11.45
2022-10-11T19:00:40.680Z,11.33
2022-10-11T19:03:32.714Z,12.32
2022-10-11T19:06:38.564Z,13.01
2022-10-11T19:09:26.747Z,13.58
2022-10-11T19:12:15.782Z,13.84
2022-10-11T19:15:03.830Z,13.28
2022-10-11T19:17:51.718Z,12.34
2022-10-11T19:20:39.520Z,12.66
2022-10-11T19:23:27.669Z,13.31
2022-10-11T19:26:32.707Z,13.73
2022-10-11T19:29:26.770Z,13.94
2022-10-11T19:32:14.989Z,13.14
2022-10-11T19:35:02.977Z,12.12
2022-10-11T19:37:50.964Z,11.65
2022-10-11T19:40:38.649Z,12.40
2022-10-11T19:43:26.315Z,13.09
2022-10-11T19:46:38.080Z,13.59
2022-10-11T19:49:26.242Z,13.45
2022-10-11T19:52:14.275Z,12.43
2022-10-11T19:55:02.116Z,11.83
2022-10-11T19:57:49.933Z,12.49
2022-10-11T20:00:37.543Z,13.08
2022-10-11T20:03:25.597Z,13.49
2022-10-11T20:06:15.088Z,13.76
2022-10-11T20:09:29.547Z,13.78
2022-10-11T20:12:17.873Z,12.58
2022-10-11T20:15:06.607Z,11.55
2022-10-11T20:17:54.542Z,11.67
2022-10-11T20:20:53.228Z,12.51
2022-10-11T20:23:44.544Z,13.03
2022-10-11T20:26:33.362Z,13.26
2022-10-11T20:29:21.079Z,13.59
2022-10-11T20:32:08.755Z,13.49
2022-10-11T20:34:56.520Z,12.49
2022-10-11T20:37:44.913Z,11.85
2022-10-11T20:40:40.730Z,12.45
2022-10-11T20:43:28.363Z,13.03
2022-10-11T20:46:19.924Z,13.50
2022-10-11T20:49:11.345Z,13.79
2022-10-11T20:51:59.245Z,14.05
2022-10-11T20:54:46.914Z,14.26
2022-10-11T20:57:34.786Z,14.41
2022-10-11T21:00:23.282Z,14.22
2022-10-11T21:03:11.333Z,13.22
2022-10-11T21:06:01.763Z,12.35
2022-10-11T21:08:49.746Z,12.07
2022-10-11T21:11:37.738Z,12.91
2022-10-11T21:14:25.381Z,13.58
2022-10-11T21:17:13.063Z,14.01
2022-10-11T21:20:03.667Z,14.31
2022-10-11T21:22:51.296Z,14.51
2022-10-11T21:25:40.841Z,14.63
2022-10-11T21:28:29.209Z,14.69
2022-10-11T21:31:20.514Z,14.82
2022-10-11T21:34:07.948Z,14.40
2022-10-11T21:36:55.906Z,13.28
2022-10-11T21:39:43.642Z,12.38
2022-10-11T21:42:31.542Z,12.09
2022-10-11T21:45:20.643Z,12.89
2022-10-11T21:48:11.922Z,13.52
2022-10-11T21:51:32.455Z,13.86
2022-10-11T21:54:22.679Z,14.15
2022-10-11T21:57:10.495Z,14.39
2022-10-11T21:59:58.416Z,14.29
2022-10-11T22:02:45.860Z,13.23
2022-10-11T22:05:33.542Z,12.19
2022-10-11T22:08:21.310Z,11.78
2022-10-11T22:11:10.988Z,12.55
2022-10-11T22:13:58.839Z,13.22
2022-10-11T22:16:46.581Z,13.53
2022-10-11T22:19:34.587Z,13.72
2022-10-11T22:22:22.383Z,13.80
2022-10-11T22:25:10.352Z,13.99
2022-10-11T22:27:58.227Z,14.11
2022-10-11T22:30:46.016Z,14.14
2022-10-11T22:33:34.964Z,14.17
2022-10-11T22:36:24.588Z,14.13
2022-10-11T22:39:12.180Z,13.73
2022-10-11T22:41:59.990Z,12.56
2022-10-11T22:44:49.642Z,11.88
2022-10-11T22:47:37.909Z,12.49
2022-10-11T22:50:25.782Z,13.03
2022-10-11T22:53:14.743Z,13.45
2022-10-11T22:56:02.485Z,13.57
2022-10-11T22:58:50.479Z,13.86
2022-10-11T23:01:38.407Z,14.10
2022-10-11T23:04:26.556Z,14.27
2022-10-11T23:07:14.230Z,14.38
2022-10-11T23:10:02.097Z,14.32
2022-10-11T23:12:49.903Z,13.29
2022-10-11T23:15:41.149Z,12.12
2022-10-11T23:18:28.770Z,11.68
2022-10-11T23:21:16.638Z,12.51
2022-10-11T23:24:05.519Z,13.25
2022-10-11T23:26:57.079Z,13.69
2022-10-11T23:29:50.411Z,13.91
2022-10-11T23:32:40.069Z,14.13
2022-10-11T23:35:27.690Z,14.29
2022-10-11T23:38:15.554Z,14.01
2022-10-11T23:41:03.598Z,12.80
2022-10-11T23:43:51.985Z,12.08
2022-10-11T23:46:39.933Z,12.66
2022-10-11T23:49:30.299Z,13.29
2022-10-11T23:52:18.167Z,13.72
2022-10-11T23:55:06.208Z,13.97
2022-10-11T23:57:54.021Z,14.18
